createdAt,value
2022-12-19T00:01:54.990Z,102158.50
2022-12-19T00:04:22.384Z,102156.00
2022-12-19T00:06:49.232Z,102147.94
2022-12-19T00:09:16.513Z,102153.22
2022-12-19T00:11:43.385Z,102150.88
2022-12-19T00:14:11.446Z,102156.34
2022-12-19T00:16:38.385Z,102161.13
2022-12-19T00:19:05.935Z,102165.44
2022-12-19T00:21:35.147Z,102154.53
2022-12-19T00:24:06.604Z,102151.88
2022-12-19T00:26:44.049Z,102152.22
2022-12-19T00:29:14.283Z,102147.66
2022-12-19T00:31:41.625Z,102150.94
2022-12-19T00:34:09.244Z,102140.25
2022-12-19T00:36:36.171Z,102137.59
2022-12-19T00:39:08.088Z,102145.66
2022-12-19T00:41:36.544Z,102143.03
2022-12-19T00:44:05.051Z,102164.06
2022-12-19T00:46:32.838Z,102151.00
2022-12-19T00:49:04.174Z,102142.44
2022-12-19T00:51:35.524Z,102142.28
2022-12-19T00:54:03.121Z,102138.09
2022-12-19T00:56:37.097Z,102135.66
2022-12-19T00:59:04.650Z,102135.19
2022-12-19T01:01:34.511Z,102122.31
2022-12-19T01:04:33.446Z,102119.81
2022-12-19T01:06:49.959Z,102124.44
2022-12-19T01:09:18.037Z,102127.25
2022-12-19T01:12:04.122Z,102137.47
2022-12-19T01:14:31.867Z,102132.22
2022-12-19T01:16:59.716Z,102129.09
2022-12-19T01:19:27.252Z,102117.56
2022-12-19T01:21:54.317Z,102121.84
2022-12-19T01:24:21.798Z,102131.91
2022-12-19T01:26:48.764Z,102135.00
2022-12-19T01:29:19.062Z,102134.53
2022-12-19T01:31:46.287Z,102124.81
2022-12-19T01:34:13.808Z,102134.38
2022-12-19T01:36:40.619Z,102125.31
2022-12-19T01:39:07.723Z,102116.09
2022-12-19T01:41:34.630Z,102106.25
2022-12-19T01:44:07.902Z,102106.56
2022-12-19T01:46:37.218Z,102099.63
2022-12-19T01:49:05.308Z,102100.97
2022-12-19T01:51:40.146Z,102100.94
2022-12-19T01:54:09.016Z,102101.78
2022-12-19T01:56:38.552Z,102090.22
2022-12-19T01:59:07.960Z,102086.06
2022-12-19T02:01:35.693Z,102088.69
2022-12-19T02:04:06.943Z,102087.72
2022-12-19T02:06:34.984Z,102084.91
2022-12-19T02:09:02.106Z,102091.94
2022-12-19T02:11:28.939Z,102079.72
2022-12-19T02:13:55.852Z,102081.91
2022-12-19T02:16:25.426Z,102077.75
2022-12-19T02:19:09.294Z,102076.06
2022-12-19T02:21:38.561Z,102069.47
2022-12-19T02:24:23.931Z,102062.19
2022-12-19T02:26:57.185Z,102059.53
2022-12-19T02:29:31.655Z,102061.78
2022-12-19T02:32:11.963Z,102060.88
2022-12-19T02:34:58.249Z,102046.97
2022-12-19T02:37:28.494Z,102040.22
2022-12-19T02:39:58.929Z,102031.75
2022-12-19T02:42:29.296Z,102040.63
2022-12-19T02:45:02.793Z,102031.19
2022-12-19T02:47:31.895Z,102025.75
2022-12-19T02:49:58.759Z,102042.72
2022-12-19T02:52:25.861Z,102033.63
2022-12-19T02:54:56.422Z,102044.19
2022-12-19T02:57:28.550Z,102028.78
2022-12-19T02:59:58.386Z,102027.13
2022-12-19T03:02:39.038Z,102022.31
2022-12-19T03:05:12.076Z,102031.03
2022-12-19T03:07:45.079Z,102022.88
2022-12-19T03:10:30.644Z,102019.06
2022-12-19T03:12:59.033Z,102025.50
2022-12-19T03:15:26.262Z,102023.97
2022-12-19T03:17:56.238Z,102015.84
2022-12-19T03:20:28.813Z,102016.31
2022-12-19T03:22:55.622Z,102014.31
2022-12-19T03:25:23.525Z,102012.94
2022-12-19T03:27:51.853Z,102011.94
2022-12-19T03:30:18.889Z,102010.75
2022-12-19T03:32:46.245Z,102001.00
2022-12-19T03:35:18.625Z,101985.63
2022-12-19T03:37:46.299Z,101983.97
2022-12-19T03:40:15.428Z,101979.41
2022-12-19T03:43:01.383Z,101978.69
2022-12-19T03:45:43.476Z,101978.88
2022-12-19T03:48:25.620Z,101977.59
2022-12-19T03:50:52.712Z,101974.31
2022-12-19T03:53:31.199Z,101968.75
2022-12-19T03:56:00.192Z,101962.66
2022-12-19T03:58:36.712Z,101949.59
2022-12-19T04:01:04.314Z,101955.06
2022-12-19T04:03:31.763Z,101942.84
2022-12-19T04:06:00.560Z,101943.88
2022-12-19T04:08:28.742Z,101940.97
2022-12-19T04:10:57.626Z,101944.41
2022-12-19T04:13:29.622Z,101941.56
2022-12-19T04:15:59.144Z,101941.84
2022-12-19T04:18:26.125Z,101937.50
2022-12-19T04:20:58.363Z,101942.78
2022-12-19T04:23:40.242Z,101932.78
2022-12-19T04:26:07.632Z,101916.16
2022-12-19T04:28:48.484Z,101912.69
2022-12-19T04:31:16.150Z,101903.41
2022-12-19T04:33:43.354Z,101891.00
2022-12-19T04:36:11.002Z,101895.81
2022-12-19T04:38:38.127Z,101898.47
2022-12-19T04:41:05.004Z,101884.88
2022-12-19T04:43:31.804Z,101886.66
2022-12-19T04:45:58.912Z,101878.50
2022-12-19T04:48:26.079Z,101887.25
2022-12-19T04:50:52.891Z,101876.06
2022-12-19T04:53:19.704Z,101868.31
2022-12-19T04:55:46.579Z,101859.06
2022-12-19T04:58:17.621Z,101845.22
2022-12-19T05:00:47.230Z,101831.75
2022-12-19T05:03:14.016Z,101828.03
2022-12-19T05:05:40.820Z,101830.22
2022-12-19T05:08:08.275Z,101833.50
2022-12-19T05:10:36.212Z,101812.63
2022-12-19T05:13:03.293Z,101835.94
2022-12-19T05:15:30.066Z,101845.34
2022-12-19T05:17:57.490Z,101838.22
2022-12-19T05:20:24.325Z,101839.22
2022-12-19T05:22:51.192Z,101831.53
2022-12-19T05:25:18.071Z,101822.38
2022-12-19T05:27:44.880Z,101821.88
2022-12-19T05:30:12.175Z,101813.13
2022-12-19T05:32:39.035Z,101817.97
2022-12-19T05:35:06.070Z,101820.97
2022-12-19T05:37:35.569Z,101816.13
2022-12-19T05:40:02.711Z,101819.78
2022-12-19T05:42:29.525Z,101825.53
2022-12-19T05:44:56.333Z,101831.34
2022-12-19T05:47:23.118Z,101816.59
2022-12-19T05:49:50.203Z,101810.09
2022-12-19T05:52:17.029Z,101802.16
2022-12-19T05:54:44.011Z,101799.72
2022-12-19T05:57:11.287Z,101788.81
2022-12-19T05:59:38.170Z,101784.34
2022-12-19T06:02:05.136Z,101774.41
2022-12-19T06:04:32.094Z,101777.84
2022-12-19T06:06:58.879Z,101777.09
2022-12-19T06:09:25.776Z,101776.72
2022-12-19T06:11:52.634Z,101782.44
2022-12-19T06:14:19.476Z,101780.22
2022-12-19T06:16:46.351Z,101774.38
2022-12-19T06:19:13.162Z,101779.28
2022-12-19T06:21:47.704Z,101769.25
2022-12-19T06:24:15.301Z,101766.06
2022-12-19T06:26:42.133Z,101765.13
2022-12-19T06:29:09.060Z,101759.25
2022-12-19T06:31:35.862Z,101764.56
2022-12-19T06:34:02.744Z,101756.66
2022-12-19T06:36:30.338Z,101748.31
2022-12-19T06:39:00.520Z,101730.59
2022-12-19T06:41:45.945Z,101728.13
2022-12-19T06:44:13.411Z,101727.97
2022-12-19T06:46:40.857Z,101717.38
2022-12-19T06:49:26.566Z,101718.81
2022-12-19T06:51:53.476Z,101726.13
2022-12-19T06:54:20.390Z,101713.72
2022-12-19T06:56:47.369Z,101712.28
2022-12-19T06:59:16.595Z,101711.72
2022-12-19T07:01:58.910Z,101714.00
2022-12-19T07:04:29.779Z,101717.28
2022-12-19T07:06:58.234Z,101725.03
2022-12-19T07:09:28.006Z,101726.31
2022-12-19T07:11:54.924Z,101724.66
2022-12-19T07:14:21.795Z,101712.03
2022-12-19T07:16:49.868Z,101708.63
2022-12-19T07:19:16.855Z,101711.66
2022-12-19T07:21:43.947Z,101712.03
2022-12-19T07:24:11.699Z,101707.59
2022-12-19T07:26:38.537Z,101717.03
2022-12-19T07:29:05.446Z,101710.53
2022-12-19T07:31:33.758Z,101706.44
2022-12-19T07:34:33.182Z,101706.69
2022-12-19T07:40:08.513Z,101696.28
2022-12-19T07:42:35.400Z,101701.56
2022-12-19T07:45:02.552Z,101698.38
2022-12-19T07:47:29.741Z,101688.81
2022-12-19T07:49:56.521Z,101687.78
2022-12-19T07:52:23.368Z,101689.06
2022-12-19T07:54:50.229Z,101689.63
2022-12-19T07:57:18.176Z,101693.34
2022-12-19T07:59:44.959Z,101681.31
2022-12-19T08:02:12.261Z,101689.69
2022-12-19T08:04:39.131Z,101691.94
2022-12-19T08:07:05.906Z,101686.63
2022-12-19T08:09:33.184Z,101684.63
2022-12-19T08:12:00.004Z,101680.16
2022-12-19T08:14:26.807Z,101667.91
2022-12-19T08:17:19.680Z,101670.34
2022-12-19T08:19:40.293Z,101673.00
2022-12-19T08:22:07.240Z,101671.16
2022-12-19T08:24:34.491Z,101660.34
2022-12-19T08:27:01.312Z,101657.94
2022-12-19T08:29:28.258Z,101653.66
2022-12-19T08:31:55.145Z,101640.75
2022-12-19T08:34:24.802Z,101642.22
2022-12-19T08:36:51.694Z,101647.50
2022-12-19T08:39:18.507Z,101644.22
2022-12-19T08:41:45.304Z,101635.22
2022-12-19T08:44:13.050Z,101631.13
2022-12-19T08:46:43.553Z,101628.47
2022-12-19T08:49:13.502Z,101629.91
2022-12-19T08:51:40.386Z,101621.53
2022-12-19T08:54:08.498Z,101614.81
2022-12-19T08:56:42.982Z,101605.41
2022-12-19T08:59:15.857Z,101591.53
2022-12-19T09:01:51.480Z,101585.56
2022-12-19T09:05:58.412Z,101571.09
2022-12-19T09:07:09.056Z,101569.66
2022-12-19T09:09:38.481Z,101556.75
2022-12-19T09:12:08.195Z,101550.22
2022-12-19T09:14:35.305Z,101560.63
2022-12-19T09:17:03.384Z,101551.44
2022-12-19T09:19:31.965Z,101543.69
2022-12-19T09:21:58.864Z,101538.56
2022-12-19T09:24:25.869Z,101529.38
2022-12-19T09:26:52.930Z,101523.63
2022-12-19T09:29:21.786Z,101523.19
2022-12-19T09:31:56.255Z,101518.31
2022-12-19T09:34:33.495Z,101513.25
2022-12-19T09:37:06.471Z,101511.97
2022-12-19T09:39:34.253Z,101500.72
2022-12-19T09:42:19.900Z,101489.25
2022-12-19T09:45:05.850Z,101483.72
2022-12-19T09:47:34.277Z,101481.25
2022-12-19T09:50:02.447Z,101472.03
2022-12-19T09:52:45.663Z,101482.81
2022-12-19T09:55:18.689Z,101472.38
2022-12-19T09:57:54.367Z,101456.22
2022-12-19T10:00:22.174Z,101452.75
2022-12-19T10:02:55.164Z,101449.88
2022-12-19T10:06:30.025Z,101446.22
2022-12-19T10:08:45.817Z,101429.06
2022-12-19T10:12:41.314Z,101421.03
2022-12-19T10:14:18.011Z,101428.63
2022-12-19T10:17:22.983Z,101430.41
2022-12-19T10:20:05.478Z,101422.88
2022-12-19T10:22:38.367Z,101416.72
2022-12-19T10:25:23.831Z,101412.22
2022-12-19T10:27:59.629Z,101400.53
2022-12-19T10:30:27.832Z,101390.88
2022-12-19T10:33:05.893Z,101385.34
2022-12-19T10:35:35.405Z,101377.59
2022-12-19T10:38:12.132Z,101379.44
2022-12-19T10:40:48.009Z,101370.34
2022-12-19T10:43:32.894Z,101366.66
2022-12-19T10:46:03.758Z,101365.34
2022-12-19T10:48:31.624Z,101356.03
2022-12-19T10:51:00.650Z,101346.97
2022-12-19T10:53:33.581Z,101342.19
2022-12-19T10:56:01.707Z,101335.97
2022-12-19T10:58:33.395Z,101328.13
2022-12-19T11:01:12.295Z,101318.44
2022-12-19T11:03:41.807Z,101314.50
2022-12-19T11:06:29.399Z,101311.97
2022-12-19T11:09:12.675Z,101307.03
2022-12-19T11:14:23.877Z,101296.75
2022-12-19T11:18:38.529Z,101285.66
2022-12-19T11:23:07.197Z,101276.78
2022-12-19T11:29:32.361Z,101263.38
2022-12-19T11:29:39.168Z,101272.03
2022-12-19T11:30:05.578Z,101265.56
2022-12-19T11:30:39.086Z,101245.47
2022-12-19T11:34:35.668Z,101253.78
2022-12-19T11:37:02.845Z,101252.25
2022-12-19T11:39:40.528Z,101245.47
2022-12-19T11:42:07.465Z,101241.53
2022-12-19T11:44:45.374Z,101229.03
2022-12-19T11:47:20.617Z,101234.47
2022-12-19T11:49:54.574Z,101224.84
2022-12-19T11:55:33.794Z,101214.34
2022-12-19T11:58:01.385Z,101219.00
2022-12-19T12:00:29.600Z,101219.31
2022-12-19T12:03:12.668Z,101213.50
2022-12-19T12:05:49.605Z,101206.59
2022-12-19T12:11:29.781Z,101199.16
2022-12-19T12:18:13.622Z,101191.28
2022-12-19T12:26:15.909Z,101191.06
2022-12-19T12:31:02.136Z,101184.56
2022-12-19T12:31:08.295Z,101183.75
2022-12-19T12:31:10.852Z,101196.50
2022-12-19T12:31:42.235Z,101184.47
2022-12-19T12:31:53.471Z,101184.91
2022-12-19T12:35:47.063Z,101170.31
2022-12-19T12:38:00.386Z,101180.84
2022-12-19T12:38:47.125Z,101168.81
2022-12-19T12:41:42.217Z,101165.44
2022-12-19T12:44:12.150Z,101167.38
2022-12-19T12:46:56.851Z,101159.63
2022-12-19T12:49:29.859Z,101153.34
2022-12-19T12:52:03.781Z,101154.16
2022-12-19T12:54:36.513Z,101157.41
2022-12-19T12:57:04.068Z,101153.47
2022-12-19T12:59:31.274Z,101148.47
2022-12-19T13:02:09.921Z,101147.09
2022-12-19T13:04:54.007Z,101141.28
2022-12-19T13:07:40.007Z,101143.22
2022-12-19T13:10:16.272Z,101136.63
2022-12-19T13:12:59.821Z,101132.09
2022-12-19T13:15:30.396Z,101127.91
2022-12-19T13:17:57.448Z,101130.31
2022-12-19T13:20:27.870Z,101121.53
2022-12-19T13:22:58.548Z,101136.78
2022-12-19T13:25:34.888Z,101132.28
2022-12-19T13:28:02.233Z,101127.75
2022-12-19T13:30:29.975Z,101139.81
2022-12-19T13:32:57.829Z,101128.09
2022-12-19T13:36:21.347Z,101125.78
2022-12-19T13:39:51.735Z,101126.66
2022-12-19T13:41:49.445Z,101125.03
2022-12-19T13:44:21.351Z,101126.66
2022-12-19T13:46:52.710Z,101130.94
2022-12-19T13:49:34.659Z,101125.16
2022-12-19T13:52:04.421Z,101124.88
2022-12-19T13:54:34.842Z,101119.31
2022-12-19T13:57:09.172Z,101114.06
2022-12-19T13:59:38.200Z,101121.00
2022-12-19T14:02:15.260Z,101116.59
2022-12-19T14:04:44.127Z,101111.00
2022-12-19T14:07:36.174Z,101113.19
2022-12-19T14:11:33.080Z,101110.84
2022-12-19T14:13:52.029Z,101125.31
2022-12-19T14:16:19.948Z,101118.41
2022-12-19T14:18:56.146Z,101124.09
2022-12-19T14:22:04.927Z,101117.72
2022-12-19T14:24:15.030Z,101113.75
2022-12-19T14:28:20.205Z,101115.63
2022-12-19T14:30:28.244Z,101111.66
2022-12-19T14:33:22.149Z,101108.75
2022-12-19T14:36:05.007Z,101109.06
2022-12-19T14:39:21.194Z,101114.16
2022-12-19T14:41:07.570Z,101107.25
2022-12-19T14:49:58.030Z,101111.31
2022-12-19T14:54:03.817Z,101099.31
2022-12-19T14:54:15.507Z,101099.09
2022-12-19T14:54:30.492Z,101097.56
2022-12-19T14:56:08.827Z,101103.38
2022-12-19T14:58:52.226Z,101109.38
2022-12-19T15:01:11.016Z,101106.72
2022-12-19T15:04:33.706Z,101099.28
2022-12-19T15:07:07.491Z,101104.47
2022-12-19T15:10:59.328Z,101096.53
2022-12-19T15:14:49.362Z,101094.75
2022-12-19T15:15:40.937Z,101089.44
2022-12-19T15:18:26.577Z,101098.34
2022-12-19T15:20:56.056Z,101092.28
2022-12-19T15:23:23.402Z,101092.28
2022-12-19T15:26:07.870Z,101100.59
2022-12-19T15:28:49.741Z,101099.59
2022-12-19T15:31:17.160Z,101081.44
2022-12-19T15:34:14.233Z,101082.00
2022-12-19T15:36:30.852Z,101076.97
2022-12-19T15:38:57.766Z,101077.28
2022-12-19T15:41:25.612Z,101070.06
2022-12-19T15:44:03.685Z,101072.75
2022-12-19T15:46:31.843Z,101072.00
2022-12-19T15:48:58.758Z,101074.66
2022-12-19T15:51:27.742Z,101080.28
2022-12-19T15:54:04.144Z,101076.81
2022-12-19T15:56:47.236Z,101070.13
2022-12-19T15:59:20.360Z,101068.00
2022-12-19T16:01:47.385Z,101060.53
2022-12-19T16:04:16.892Z,101059.47
2022-12-19T16:06:43.833Z,101058.19
2022-12-19T16:09:24.854Z,101054.22
2022-12-19T16:11:55.647Z,101047.81
2022-12-19T16:14:22.777Z,101046.50
2022-12-19T16:16:52.160Z,101037.94
2022-12-19T16:19:30.209Z,101033.41
2022-12-19T16:22:00.768Z,101036.38
2022-12-19T16:24:29.960Z,101022.53
2022-12-19T16:26:58.891Z,101026.81
2022-12-19T16:29:28.361Z,101015.06
2022-12-19T16:31:56.169Z,101022.56
2022-12-19T16:34:24.235Z,101009.47
2022-12-19T16:36:51.177Z,101022.34
2022-12-19T16:39:18.178Z,101004.50
2022-12-19T16:41:50.149Z,101003.41
2022-12-19T16:44:20.685Z,101001.28
2022-12-19T16:46:50.910Z,101006.31
2022-12-19T16:49:24.623Z,101006.06
2022-12-19T16:51:54.222Z,101011.41
2022-12-19T16:54:21.015Z,101022.59
2022-12-19T16:56:52.490Z,101015.88
2022-12-19T16:59:19.724Z,101012.41
2022-12-19T17:01:47.481Z,101015.88
2022-12-19T17:04:16.445Z,101008.91
2022-12-19T17:06:43.808Z,101012.16
2022-12-19T17:09:15.747Z,101021.22
2022-12-19T17:11:48.207Z,101012.41
2022-12-19T17:14:17.785Z,101011.84
2022-12-19T17:16:45.019Z,101002.75
2022-12-19T17:19:32.071Z,101002.19
2022-12-19T17:21:58.972Z,101001.72
2022-12-19T17:24:29.336Z,101008.66
2022-12-19T17:26:56.184Z,100999.84
2022-12-19T17:29:26.437Z,100992.56
2022-12-19T17:31:55.535Z,100995.31
2022-12-19T17:34:26.861Z,100992.63
2022-12-19T17:36:53.936Z,100995.38
2022-12-19T17:39:22.471Z,100989.53
2022-12-19T17:41:49.939Z,100997.53
2022-12-19T17:44:17.384Z,100986.06
2022-12-19T17:46:45.280Z,100998.94
2022-12-19T17:49:16.546Z,100989.09
2022-12-19T17:51:46.475Z,100985.88
2022-12-19T17:54:13.972Z,100982.69
2022-12-19T17:56:40.778Z,100981.66
2022-12-19T17:59:07.529Z,100985.44
2022-12-19T18:01:34.805Z,100983.56
2022-12-19T18:04:01.794Z,100990.81
2022-12-19T18:06:28.837Z,100985.47
2022-12-19T18:08:55.626Z,100994.63
2022-12-19T18:11:24.015Z,101003.44
2022-12-19T18:13:51.199Z,100997.28
2022-12-19T18:16:20.965Z,100996.72
2022-12-19T18:18:48.296Z,100995.09
2022-12-19T18:21:16.139Z,101002.06
2022-12-19T18:23:43.561Z,100998.34
2022-12-19T18:26:11.183Z,101005.31
2022-12-19T18:28:38.890Z,100998.34
2022-12-19T18:31:16.313Z,101002.88
2022-12-19T18:33:45.376Z,100994.59
2022-12-19T18:36:20.201Z,100997.28
2022-12-19T18:38:48.704Z,101006.38
2022-12-19T18:41:16.864Z,101009.56
2022-12-19T18:43:44.322Z,101008.00
2022-12-19T18:46:15.486Z,101017.59
2022-12-19T18:48:43.167Z,101011.47
2022-12-19T18:51:16.636Z,101015.19
2022-12-19T18:53:44.177Z,101010.09
2022-12-19T18:56:11.141Z,101014.94
2022-12-19T18:58:38.183Z,101018.13
2022-12-19T19:01:07.040Z,101013.09
2022-12-19T19:03:45.935Z,101011.72
2022-12-19T19:06:37.872Z,101005.31
2022-12-19T19:09:11.139Z,101009.03
2022-12-19T19:11:37.961Z,101010.09
2022-12-19T19:14:04.876Z,101013.09
2022-12-19T19:16:32.073Z,101012.56
2022-12-19T19:18:59.387Z,101011.78
2022-12-19T19:21:29.227Z,101020.84
2022-12-19T19:24:16.362Z,101013.88
2022-12-19T19:26:43.729Z,101014.94
2022-12-19T19:29:10.956Z,101016.50
2022-12-19T19:31:39.388Z,101009.59
2022-12-19T19:34:09.648Z,101013.09
2022-12-19T19:36:38.371Z,101042.75
2022-12-19T19:39:05.584Z,101039.84
2022-12-19T19:41:34.312Z,101018.44
2022-12-19T19:44:03.263Z,101018.44
2022-12-19T19:46:32.713Z,101028.63
2022-12-19T19:49:00.171Z,101012.31
2022-12-19T19:51:29.299Z,101020.84
2022-12-19T19:53:56.665Z,101027.25
2022-12-19T19:56:23.597Z,101020.84
2022-12-19T19:58:50.429Z,101024.09
2022-12-19T20:01:17.758Z,101020.84
2022-12-19T20:03:45.180Z,101027.00
2022-12-19T20:06:12.634Z,101026.50
2022-12-19T20:08:41.001Z,101024.09
2022-12-19T20:11:09.242Z,101032.38
2022-12-19T20:13:36.302Z,101021.16
2022-12-19T20:16:07.226Z,101018.50
2022-12-19T20:18:34.775Z,101024.09
2022-12-19T20:21:01.947Z,101019.78
2022-12-19T20:23:29.052Z,101024.59
2022-12-19T20:26:00.614Z,101034.75
2022-12-19T20:28:27.491Z,101051.34
2022-12-19T20:30:54.646Z,101050.53
2022-12-19T20:33:21.482Z,101052.16
2022-12-19T20:35:48.334Z,101048.72
2022-12-19T20:38:17.384Z,101046.31
2022-12-19T20:40:45.344Z,101034.78
2022-12-19T20:43:12.426Z,101034.78
2022-12-19T20:45:39.257Z,101035.59
2022-12-19T20:48:06.109Z,101030.00
2022-12-19T20:50:35.888Z,101030.81
2022-12-19T20:53:05.030Z,101024.09
2022-12-19T20:55:31.896Z,101030.50
2022-12-19T20:57:58.793Z,101037.47
2022-12-19T21:00:25.837Z,101033.97
2022-12-19T21:03:26.355Z,101033.16
2022-12-19T21:05:41.981Z,101059.13
2022-12-19T21:08:08.932Z,101074.38
2022-12-19T21:10:35.853Z,101069.50
2022-12-19T21:13:02.769Z,101066.84
2022-12-19T21:15:31.468Z,101052.97
2022-12-19T21:17:58.277Z,101059.94
2022-12-19T21:20:29.483Z,101055.13
2022-12-19T21:23:00.801Z,101054.63
2022-12-19T21:25:27.668Z,101054.63
2022-12-19T21:27:54.471Z,101057.31
2022-12-19T21:30:22.163Z,101066.41
2022-12-19T21:32:49.155Z,101065.28
2022-12-19T21:35:15.960Z,101070.31
2022-12-19T21:37:44.229Z,101076.22
2022-12-19T21:40:11.279Z,101090.66
2022-12-19T21:42:38.097Z,101078.91
2022-12-19T21:45:05.348Z,101093.91
2022-12-19T21:47:35.203Z,101103.53
2022-12-19T21:50:02.281Z,101110.22
2022-12-19T21:52:29.119Z,101103.75
2022-12-19T21:54:55.891Z,101103.75
2022-12-19T21:57:22.745Z,101111.75
2022-12-19T21:59:49.686Z,101110.16
2022-12-19T22:02:16.873Z,101109.59
2022-12-19T22:04:43.994Z,101099.63
2022-12-19T22:07:10.835Z,101107.91
2022-12-19T22:09:37.633Z,101104.69
2022-12-19T22:12:04.693Z,101102.31
2022-12-19T22:14:31.664Z,101105.78
2022-12-19T22:16:59.289Z,101101.50
2022-12-19T22:19:26.115Z,101098.53
2022-12-19T22:21:52.946Z,101100.69
2022-12-19T22:24:20.231Z,101094.28
2022-12-19T22:26:47.155Z,101097.19
2022-12-19T22:29:15.108Z,101092.91
2022-12-19T22:31:42.602Z,101099.56
2022-12-19T22:34:11.015Z,101105.22
2022-12-19T22:36:38.814Z,101108.16
2022-12-19T22:39:07.099Z,101117.47
2022-12-19T22:41:34.885Z,101121.69
2022-12-19T22:44:02.058Z,101111.00
2022-12-19T22:46:31.074Z,101102.47
2022-12-19T22:48:59.189Z,101106.47
2022-12-19T22:51:26.613Z,101115.00
2022-12-19T22:53:53.803Z,101112.59
2022-12-19T22:56:21.936Z,101105.13
2022-12-19T22:58:49.626Z,101101.63
2022-12-19T23:01:19.270Z,101098.16
2022-12-19T23:03:47.144Z,101106.75
2022-12-19T23:06:14.773Z,101109.94
2022-12-19T23:08:42.117Z,101103.84
2022-12-19T23:11:10.841Z,101100.69
2022-12-19T23:13:41.499Z,101117.53
2022-12-19T23:16:08.437Z,101111.09
2022-12-19T23:18:35.257Z,101109.75
2022-12-19T23:21:09.337Z,101106.56
2022-12-19T23:23:40.285Z,101112.19
2022-12-19T23:26:13.430Z,101114.88
2022-12-19T23:28:42.846Z,101112.72
2022-12-19T23:31:10.752Z,101106.03
2022-12-19T23:33:37.680Z,101110.31
2022-12-19T23:36:05.059Z,101108.47
2022-12-19T23:38:32.272Z,101105.78
2022-12-19T23:41:06.584Z,101101.50
2022-12-19T23:43:34.333Z,101104.97
2022-12-19T23:46:07.216Z,101111.13
2022-12-19T23:48:34.145Z,101107.41
2022-12-19T23:51:02.527Z,101113.25
2022-12-19T23:53:29.842Z,101111.66
2022-12-19T23:55:56.643Z,101111.66
2022-12-19T23:58:24.778Z,101117.53
